Chauvin, Louisiana
Current Conditions -  °F | °C
As of 6:55 PM on Saturday 27 Dec 2014 (Local Time) from KHUM Reporting Station
Clear Clear  
Wind Chill: 71°   Ceiling: Unl
Heat Index: 71°   Visibility: 7mi
Dew Point: 70°   Wind: 8mph
Humidity: 97%   Direction: 190°S
Pressure: 30.07"   Gusts: NA
Location:  29.44°N, 90.6°W
Report Text: KHUM 280055Z AUTO 19007KT 7SM CLR 22/21 A3007 RMK AO2 LTG DSNT NW THRU E T02150210
Loading
Personal Weather Stations






























Interactive Weather Map New forecast layout! Learn more

10-Day Weather Forecast

Advertisements
Track Severe Weather on mobile